Terminal Aerodrome Forecast
Issued by NWS Omaha/Valley, NE

Home | Current Version | Previous Version | Text Only | Print | Product List | Glossary On
Versions: 1 2 3 4 5 6 7 8 9 10 11 12 13 14 15 16 17 18 19 20 21 22 23 24 25 26 27 28 29 30 31 32 33 34 35 36 37 38 39 40 41 42 43 44 45 46 47 48 49 50
000
FTUS43 KOAX 070532
TAFOFK
TAF
KOFK 070532Z 0706/0806 15017G24KT P6SM OVC100
      TEMPO 0706/0709 5SM -TSRA BKN025CB
     FM070900 16015G22KT P6SM OVC100
     FM071100 19012KT P6SM OVC050
     FM071500 24012KT P6SM OVC025
     FM072000 31015G21KT P6SM BKN050=

USA.gov is the U.S. government's official web portal to all federal, state and local government web resources and services.